Time;durP1;ratioP1;P1;durP2;ratioP2;P2;SDS_P1;SDS_P2;PMS_P1;PMS_P2;Temp;Humidity;BMP_temperature;BMP_pressure;BME280_temperature;BME280_humidity;BME280_pressure;Samples;Min_cycle;Max_cycle;Signal;HPM_P1;HPM_P2
2022/09/29 00:02:13;;;;;;;7.15;5.68;;;5.60;99.90;;;;;;4996220;28;20463;-70
2022/09/29 00:04:39;;;;;;;8.07;4.97;;;5.60;99.90;;;;;;4996282;28;20410;-71
2022/09/29 00:07:05;;;;;;;8.32;4.95;;;5.60;99.90;;;;;;4995963;28;20038;-71
2022/09/29 00:09:31;;;;;;;6.63;5.50;;;5.60;99.90;;;;;;4978869;28;20117;-72
2022/09/29 00:11:56;;;;;;;9.30;6.45;;;5.50;99.90;;;;;;4995518;28;20420;-71
2022/09/29 00:14:23;;;;;;;8.55;6.40;;;5.50;99.90;;;;;;4979014;28;20078;-71
2022/09/29 00:16:49;;;;;;;7.45;6.40;;;5.50;99.90;;;;;;4995930;28;20042;-73
2022/09/29 00:19:15;;;;;;;6.65;5.90;;;5.50;99.90;;;;;;4995913;28;20054;-71
2022/09/29 00:21:40;;;;;;;6.40;5.70;;;5.50;99.90;;;;;;4995016;28;20530;-73
2022/09/29 00:24:06;;;;;;;7.70;6.07;;;5.50;99.90;;;;;;4978674;28;20050;-71
2022/09/29 00:26:32;;;;;;;7.63;5.65;;;5.40;99.90;;;;;;4978166;28;20089;-72
2022/09/29 00:28:59;;;;;;;8.70;6.45;;;5.40;99.90;;;;;;4995826;28;20058;-70
2022/09/29 00:31:27;;;;;;;7.53;6.03;;;5.40;99.90;;;;;;4995512;28;20333;-72
2022/09/29 00:33:53;;;;;;;9.10;7.18;;;5.40;99.90;;;;;;4978812;28;20406;-72
2022/09/29 00:36:20;;;;;;;7.32;6.03;;;5.40;99.90;;;;;;4995360;28;20050;-71
2022/09/29 00:38:46;;;;;;;11.40;6.75;;;5.40;99.90;;;;;;4978176;28;20050;-71
2022/09/29 00:41:16;;;;;;;8.70;6.45;;;5.30;99.90;;;;;;4995494;28;20337;-72
2022/09/29 00:43:58;;;;;;;9.52;7.28;;;5.40;99.90;;;;;;4962447;28;20112;-72
2022/09/29 00:46:27;;;;;;;8.02;6.00;;;5.40;99.90;;;;;;4995570;28;20050;-72
2022/09/29 00:48:57;;;;;;;9.80;7.60;;;5.30;99.90;;;;;;4978145;28;20042;-71
2022/09/29 00:51:24;;;;;;;8.82;7.20;;;5.30;99.90;;;;;;4974864;28;20487;-72
2022/09/29 00:53:50;;;;;;;8.57;7.50;;;5.30;99.90;;;;;;4976398;28;20109;-72
2022/09/29 00:56:18;;;;;;;8.38;6.95;;;5.30;99.90;;;;;;4976392;28;20051;-73
2022/09/29 00:58:55;;;;;;;8.85;6.38;;;5.30;99.90;;;;;;4976231;28;20129;-72
2022/09/29 01:01:24;;;;;;;14.68;6.97;;;5.30;99.90;;;;;;4975991;28;20443;-70
2022/09/29 01:03:54;;;;;;;7.55;5.72;;;5.30;99.90;;;;;;4958740;28;20082;-71
2022/09/29 01:06:42;;;;;;;11.40;7.22;;;5.30;99.90;;;;;;4980511;28;20039;-71
2022/09/29 01:09:12;;;;;;;9.55;6.40;;;5.30;99.90;;;;;;4977852;28;20403;-71
2022/09/29 01:11:39;;;;;;;8.85;7.72;;;5.30;99.90;;;;;;4995313;28;20089;-72
2022/09/29 01:14:07;;;;;;;12.73;7.53;;;5.30;99.90;;;;;;4995020;28;20054;-73
2022/09/29 01:16:36;;;;;;;8.27;7.25;;;5.30;99.90;;;;;;4995707;28;20148;-71
2022/09/29 01:19:06;;;;;;;7.95;6.78;;;5.20;99.90;;;;;;4995335;28;20054;-72
2022/09/29 01:22:10;;;;;;;9.90;7.70;;;5.20;99.90;;;;;;4995434;28;20411;-72
2022/09/29 01:25:02;;;;;;;10.93;7.55;;;5.20;99.90;;;;;;4928555;28;20050;-74
2022/09/29 01:27:45;;;;;;;11.25;8.55;;;5.20;99.90;;;;;;4998787;28;20089;-72
2022/09/29 01:30:19;;;;;;;8.85;7.38;;;5.20;99.90;;;;;;4999222;28;20082;-72
2022/09/29 01:33:06;;;;;;;8.23;7.28;;;5.20;99.90;;;;;;4998865;28;20057;-71
2022/09/29 01:36:04;;;;;;;12.38;8.98;;;5.20;99.90;;;;;;4981392;28;20058;-71
2022/09/29 01:38:35;;;;;;;8.15;7.18;;;5.20;99.90;;;;;;4979338;28;20046;-72
2022/09/29 01:41:07;;;;;;;9.60;8.15;;;5.20;99.90;;;;;;4979407;28;20082;-72
2022/09/29 01:43:41;;;;;;;8.50;7.38;;;5.20;99.90;;;;;;4979142;28;20333;-73
2022/09/29 01:46:11;;;;;;;10.88;8.80;;;5.10;99.90;;;;;;4975651;28;20050;-71
2022/09/29 01:48:41;;;;;;;9.80;8.57;;;5.10;99.90;;;;;;4998824;28;20054;-72
2022/09/29 01:51:15;;;;;;;8.88;7.28;;;5.10;99.90;;;;;;4998564;28;20466;-72
2022/09/29 01:53:46;;;;;;;8.63;7.32;;;5.10;99.90;;;;;;4998364;28;20065;-71
2022/09/29 01:56:19;;;;;;;8.93;7.45;;;5.00;99.90;;;;;;4981007;28;20053;-71
2022/09/29 01:58:56;;;;;;;9.52;7.85;;;5.00;99.90;;;;;;4998744;28;20046;-71
2022/09/29 02:01:27;;;;;;;9.75;7.60;;;5.00;99.90;;;;;;4997826;28;20050;-73
2022/09/29 02:04:13;;;;;;;8.75;7.13;;;5.00;99.90;;;;;;4998392;28;20459;-72
2022/09/29 02:07:01;;;;;;;8.30;6.95;;;5.00;99.90;;;;;;4998263;28;20057;-72
2022/09/29 02:09:36;;;;;;;7.80;6.88;;;5.00;99.90;;;;;;4997581;28;20054;-71
2022/09/29 02:12:06;;;;;;;8.25;7.05;;;5.40;99.90;;;;;;4998229;28;20077;-71
2022/09/29 02:14:44;;;;;;;8.40;7.35;;;5.00;99.90;;;;;;4997578;28;20074;-73
2022/09/29 02:17:34;;;;;;;10.20;8.43;;;4.90;99.90;;;;;;4981332;28;20138;-72
2022/09/29 02:20:00;;;;;;;9.65;8.00;;;4.90;99.90;;;;;;4980537;28;20154;-72
2022/09/29 02:22:25;;;;;;;9.45;7.97;;;4.90;99.90;;;;;;4980620;28;20158;-70
2022/09/29 02:24:54;;;;;;;10.15;8.60;;;4.90;99.90;;;;;;4980907;28;20050;-71
2022/09/29 02:27:21;;;;;;;9.88;8.80;;;4.90;99.90;;;;;;4997730;28;20054;-72
2022/09/29 02:29:47;;;;;;;9.93;8.35;;;4.90;99.90;;;;;;4972911;28;20042;-73
2022/09/29 02:32:13;;;;;;;8.88;7.40;;;4.90;99.90;;;;;;4978119;28;20054;-71
2022/09/29 02:34:44;;;;;;;8.55;7.38;;;4.80;99.90;;;;;;4960767;28;20146;-72
2022/09/29 02:37:35;;;;;;;10.93;9.00;;;4.80;99.90;;;;;;4961472;28;20051;-72
2022/09/29 02:40:09;;;;;;;18.13;8.85;;;5.60;99.90;;;;;;4961738;28;20130;-73
2022/09/29 02:42:59;;;;;;;12.80;10.63;;;4.80;99.90;;;;;;4978540;28;20448;-72
2022/09/29 02:45:33;;;;;;;12.60;10.45;;;4.80;99.90;;;;;;4961402;28;20535;-72
2022/09/29 02:48:30;;;;;;;17.13;10.07;;;4.80;99.90;;;;;;4978047;28;20337;-73
2022/09/29 02:51:30;;;;;;;10.15;8.80;;;4.80;99.90;;;;;;4977873;28;20062;-71
2022/09/29 02:54:24;;;;;;;11.13;9.77;;;4.80;99.90;;;;;;4978258;28;20066;-72
2022/09/29 02:57:16;;;;;;;9.82;8.15;;;4.80;99.90;;;;;;4977889;28;20046;-71
2022/09/29 02:59:49;;;;;;;15.10;11.07;;;4.70;99.90;;;;;;4989493;28;20073;-72
2022/09/29 03:02:15;;;;;;;11.50;8.90;;;4.70;99.90;;;;;;4997058;28;20046;-72
2022/09/29 03:04:41;;;;;;;11.25;9.30;;;4.70;99.90;;;;;;4997413;28;20057;-71
2022/09/29 03:07:06;;;;;;;10.10;8.68;;;4.70;99.90;;;;;;4980526;28;20454;-72
2022/09/29 03:09:32;;;;;;;12.20;9.40;;;4.70;99.90;;;;;;4980166;28;20146;-71
2022/09/29 03:11:58;;;;;;;13.05;10.32;;;4.70;99.90;;;;;;4997142;28;20050;-71
2022/09/29 03:14:24;;;;;;;10.45;9.25;;;4.70;99.90;;;;;;4996871;28;20379;-71
2022/09/29 03:16:49;;;;;;;12.07;10.15;;;4.60;99.90;;;;;;4980194;28;20050;-71
2022/09/29 03:19:15;;;;;;;15.38;11.63;;;4.60;99.90;;;;;;4997115;28;20359;-72
2022/09/29 03:21:40;;;;;;;10.50;9.23;;;4.60;99.90;;;;;;4997604;28;20113;-72
2022/09/29 03:24:06;;;;;;;10.32;9.30;;;4.60;99.90;;;;;;4979580;28;20372;-71
2022/09/29 03:26:32;;;;;;;10.77;9.68;;;4.60;99.90;;;;;;4996742;28;20038;-72
2022/09/29 03:28:57;;;;;;;12.77;10.77;;;4.60;99.90;;;;;;4996421;28;20042;-71
2022/09/29 03:31:23;;;;;;;12.27;10.52;;;4.50;99.90;;;;;;4979328;28;20101;-71
2022/09/29 03:33:48;;;;;;;11.25;10.05;;;4.50;99.90;;;;;;4996871;28;20086;-71
2022/09/29 03:36:14;;;;;;;15.90;12.23;;;4.50;99.90;;;;;;4996557;28;20512;-72
2022/09/29 03:38:40;;;;;;;10.73;9.38;;;4.50;99.90;;;;;;4996785;28;20050;-71
2022/09/29 03:41:06;;;;;;;21.00;16.88;;;4.60;99.90;;;;;;4997034;28;20445;-71
2022/09/29 03:43:32;;;;;;;14.35;11.48;;;4.50;99.90;;;;;;4996435;28;20046;-73
2022/09/29 03:45:58;;;;;;;12.55;11.25;;;4.50;99.90;;;;;;4979899;28;20135;-72
2022/09/29 03:48:24;;;;;;;11.65;10.43;;;4.50;99.90;;;;;;4996408;28;20096;-70
2022/09/29 03:50:50;;;;;;;17.33;12.55;;;4.50;99.90;;;;;;4996130;28;20050;-73
2022/09/29 03:53:16;;;;;;;18.40;15.68;;;4.50;99.90;;;;;;4979402;28;20443;-73
2022/09/29 03:55:47;;;;;;;16.38;13.18;;;4.60;99.90;;;;;;4996441;28;20399;-72
2022/09/29 03:58:13;;;;;;;14.90;12.63;;;4.50;99.90;;;;;;4996899;28;20046;-70
2022/09/29 04:00:39;;;;;;;12.02;10.38;;;4.50;99.90;;;;;;4997352;28;20050;-70
2022/09/29 04:03:05;;;;;;;12.88;11.48;;;4.50;99.90;;;;;;4996640;28;20041;-72
2022/09/29 04:05:31;;;;;;;13.75;12.07;;;4.50;99.90;;;;;;4996147;28;20136;-73
2022/09/29 04:07:57;;;;;;;13.30;11.80;;;4.50;99.90;;;;;;4965563;28;20082;-71
2022/09/29 04:10:22;;;;;;;19.17;14.32;;;4.80;99.90;;;;;;4995856;28;20043;-71
2022/09/29 04:12:48;;;;;;;15.68;12.15;;;4.40;99.90;;;;;;4995834;28;20422;-71
2022/09/29 04:15:13;;;;;;;11.93;10.20;;;4.50;99.90;;;;;;4995988;28;20090;-71
2022/09/29 04:17:39;;;;;;;14.43;12.52;;;4.80;99.90;;;;;;4961524;28;20101;-69
2022/09/29 04:20:06;;;;;;;15.88;13.25;;;4.40;99.90;;;;;;4979047;28;20475;-70
2022/09/29 04:22:32;;;;;;;19.30;14.68;;;4.40;99.90;;;;;;4978606;28;20066;-71
2022/09/29 04:24:58;;;;;;;12.95;11.57;;;4.50;99.90;;;;;;4996170;28;20042;-72
2022/09/29 04:27:24;;;;;;;13.75;11.32;;;4.90;99.90;;;;;;4976899;28;20118;-72
2022/09/29 04:29:51;;;;;;;16.30;13.50;;;4.50;99.90;;;;;;4978982;28;20133;-71
2022/09/29 04:32:16;;;;;;;17.38;13.20;;;4.40;99.90;;;;;;4978537;28;20133;-72
2022/09/29 04:34:43;;;;;;;15.05;12.05;;;4.40;99.90;;;;;;4978723;28;20046;-71
2022/09/29 04:37:10;;;;;;;16.83;12.73;;;4.40;99.90;;;;;;4978824;28;20050;-73
2022/09/29 04:39:36;;;;;;;13.88;11.68;;;4.30;99.90;;;;;;4978338;28;20117;-72
2022/09/29 04:42:01;;;;;;;15.98;12.82;;;4.30;99.90;;;;;;4995120;28;20061;-72
2022/09/29 04:44:27;;;;;;;21.17;15.30;;;4.30;99.90;;;;;;4978423;28;20054;-72
2022/09/29 04:46:53;;;;;;;19.90;14.43;;;4.30;99.90;;;;;;4995443;28;20050;-71
2022/09/29 04:49:18;;;;;;;17.85;14.05;;;4.40;99.90;;;;;;4979254;28;20420;-70
2022/09/29 04:51:44;;;;;;;26.42;17.45;;;4.90;99.90;;;;;;4978328;28;20109;-74
2022/09/29 04:54:10;;;;;;;23.35;16.10;;;4.40;99.90;;;;;;4978633;28;20478;-71
2022/09/29 04:56:35;;;;;;;34.28;18.40;;;4.40;99.90;;;;;;4995481;28;20057;-74
2022/09/29 04:59:01;;;;;;;17.55;13.77;;;4.50;99.90;;;;;;5001274;28;20054;-70
2022/09/29 05:01:27;;;;;;;19.60;15.15;;;4.50;99.90;;;;;;5001857;28;20043;-71
2022/09/29 05:03:52;;;;;;;15.48;13.38;;;4.50;99.90;;;;;;5002015;28;20046;-72
2022/09/29 05:06:18;;;;;;;15.82;11.98;;;4.50;99.90;;;;;;4984478;28;20061;-72
2022/09/29 05:08:44;;;;;;;29.83;18.55;;;4.50;99.90;;;;;;5001916;28;20058;-71
2022/09/29 05:11:10;;;;;;;13.70;12.32;;;4.50;99.90;;;;;;5002283;28;20065;-71
2022/09/29 05:13:36;;;;;;;19.45;13.50;;;4.50;99.90;;;;;;4994074;28;20140;-72
2022/09/29 05:16:03;;;;;;;12.75;11.45;;;4.50;99.90;;;;;;5001780;28;20057;-72
2022/09/29 05:18:29;;;;;;;17.33;12.50;;;4.40;99.90;;;;;;4984757;28;20050;-72
2022/09/29 05:21:00;;;;;;;12.95;10.70;;;4.40;99.90;;;;;;5001187;28;20085;-72
2022/09/29 05:23:27;;;;;;;12.55;11.25;;;4.40;99.90;;;;;;4984626;28;20086;-72
2022/09/29 05:25:53;;;;;;;15.50;12.27;;;4.30;99.90;;;;;;4984806;28;20153;-71
2022/09/29 05:28:19;;;;;;;13.88;12.43;;;4.30;99.90;;;;;;5001742;28;20526;-70
2022/09/29 05:30:44;;;;;;;13.88;12.43;;;4.30;99.90;;;;;;5001661;28;20060;-71
2022/09/29 05:33:10;;;;;;;13.85;12.18;;;4.60;99.90;;;;;;4984487;28;20065;-71
2022/09/29 05:35:35;;;;;;;15.30;12.30;;;4.30;99.90;;;;;;5000856;28;20466;-71
2022/09/29 05:38:01;;;;;;;15.63;11.18;;;4.30;99.90;;;;;;5001984;28;20100;-72
2022/09/29 05:40:27;;;;;;;16.45;12.32;;;4.20;99.90;;;;;;4984800;28;20129;-71
2022/09/29 05:42:52;;;;;;;15.55;13.85;;;4.20;99.90;;;;;;4984363;28;20079;-71
2022/09/29 05:45:18;;;;;;;16.75;13.65;;;4.20;99.90;;;;;;5001788;28;20129;-70
2022/09/29 05:47:44;;;;;;;16.77;12.98;;;4.20;99.90;;;;;;4984035;28;20046;-71
2022/09/29 05:50:11;;;;;;;19.05;16.13;;;4.30;99.90;;;;;;4984737;28;20058;-71
2022/09/29 05:52:38;;;;;;;17.73;15.45;;;4.20;99.90;;;;;;4983459;28;20076;-71
2022/09/29 05:55:04;;;;;;;19.02;14.43;;;4.30;99.90;;;;;;4984415;28;20046;-70
2022/09/29 05:57:30;;;;;;;21.30;16.23;;;4.30;99.90;;;;;;4984111;28;20046;-72
2022/09/29 05:59:56;;;;;;;18.05;15.65;;;4.40;99.90;;;;;;4984221;28;20057;-71
2022/09/29 06:02:22;;;;;;;18.75;16.25;;;4.60;99.90;;;;;;5000727;28;20038;-71
2022/09/29 06:04:48;;;;;;;21.17;17.13;;;4.40;99.90;;;;;;5001180;28;20054;-72
2022/09/29 06:07:13;;;;;;;19.10;16.27;;;4.50;99.90;;;;;;4984563;28;20050;-71
2022/09/29 06:09:39;;;;;;;21.65;17.63;;;4.60;99.90;;;;;;4998523;28;20045;-72
2022/09/29 06:12:05;;;;;;;23.45;17.45;;;4.60;99.90;;;;;;4998239;28;20463;-70
2022/09/29 06:14:31;;;;;;;19.42;17.17;;;4.70;99.90;;;;;;4998140;28;20054;-73
2022/09/29 06:16:56;;;;;;;21.27;17.55;;;4.80;99.90;;;;;;4980431;28;20046;-72
2022/09/29 06:19:22;;;;;;;21.13;18.48;;;4.80;99.90;;;;;;4998007;28;20042;-75
2022/09/29 06:21:47;;;;;;;28.35;20.10;;;4.90;99.90;;;;;;4998051;28;20389;-71
2022/09/29 06:24:13;;;;;;;20.75;17.40;;;5.00;99.90;;;;;;4981117;28;20113;-72
2022/09/29 06:26:39;;;;;;;24.80;20.27;;;5.10;99.90;;;;;;4998001;28;20477;-71
2022/09/29 06:29:04;;;;;;;22.77;19.45;;;5.20;99.90;;;;;;4980633;28;20451;-71
2022/09/29 06:31:31;;;;;;;21.42;18.50;;;5.30;99.90;;;;;;4997325;28;20050;-71
2022/09/29 06:33:58;;;;;;;20.35;18.15;;;5.30;99.90;;;;;;4997641;28;20046;-70
2022/09/29 06:39:23;;;;;;;20.83;18.15;;;5.50;99.90;;;;;;4997911;28;20120;-71
2022/09/29 06:41:52;;;;;;;23.95;20.23;;;5.50;99.90;;;;;;4980294;28;20058;-72
2022/09/29 06:44:19;;;;;;;24.25;19.80;;;5.60;99.90;;;;;;4997635;28;20065;-73
2022/09/29 06:46:45;;;;;;;23.45;18.98;;;5.60;99.90;;;;;;4980749;28;20081;-71
2022/09/29 06:49:12;;;;;;;20.92;18.15;;;5.70;99.90;;;;;;4980632;28;20042;-72
2022/09/29 06:51:38;;;;;;;20.52;17.17;;;5.80;99.90;;;;;;4997765;28;20351;-71
2022/09/29 06:54:04;;;;;;;20.90;18.00;;;5.80;99.90;;;;;;4997505;28;20046;-71
2022/09/29 06:56:29;;;;;;;19.40;17.38;;;5.90;99.90;;;;;;4997373;28;20050;-72
2022/09/29 06:58:55;;;;;;;20.75;18.63;;;6.10;99.90;;;;;;4980596;28;20042;-73
2022/09/29 07:01:20;;;;;;;21.48;17.73;;;6.10;99.90;;;;;;4970320;28;20147;-71
2022/09/29 07:03:47;;;;;;;18.65;16.65;;;6.10;99.90;;;;;;4961174;28;20132;-71
2022/09/29 07:06:12;;;;;;;16.23;14.18;;;6.20;99.90;;;;;;4977819;28;20081;-70
2022/09/29 07:08:38;;;;;;;20.02;14.77;;;6.30;99.90;;;;;;4977708;28;20117;-72
2022/09/29 07:11:08;;;;;;;16.83;15.02;;;6.30;99.90;;;;;;4977958;28;20051;-73
2022/09/29 07:13:35;;;;;;;17.73;15.82;;;6.40;99.90;;;;;;4977637;28;20047;-72
2022/09/29 07:16:12;;;;;;;15.55;13.70;;;6.50;99.90;;;;;;4960586;28;20054;-73
2022/09/29 07:18:40;;;;;;;16.92;14.00;;;6.50;99.90;;;;;;4960979;28;20054;-72
2022/09/29 07:21:11;;;;;;;16.00;14.13;;;6.50;99.90;;;;;;4943792;28;20494;-73
2022/09/29 07:23:38;;;;;;;17.92;15.07;;;6.50;99.90;;;;;;4977843;28;20053;-71
2022/09/29 07:26:05;;;;;;;17.30;15.48;;;6.60;99.90;;;;;;4960853;28;20407;-73
2022/09/29 07:28:31;;;;;;;17.42;15.60;;;6.60;99.90;;;;;;4977416;28;20391;-71
2022/09/29 07:30:58;;;;;;;19.13;16.40;;;6.60;99.90;;;;;;4970795;28;20050;-70
2022/09/29 07:33:24;;;;;;;21.67;16.55;;;6.60;99.90;;;;;;4980027;28;20046;-72
2022/09/29 07:35:54;;;;;;;18.98;16.83;;;6.70;99.90;;;;;;4996223;28;20129;-72
2022/09/29 07:38:20;;;;;;;18.40;15.98;;;6.70;99.90;;;;;;4996996;28;20113;-72
2022/09/29 07:40:45;;;;;;;16.10;14.45;;;6.70;99.90;;;;;;4996415;28;20046;-71
2022/09/29 07:43:11;;;;;;;20.48;17.13;;;6.80;99.90;;;;;;4979284;28;20057;-70
2022/09/29 07:45:37;;;;;;;22.45;17.15;;;6.80;99.90;;;;;;4996730;28;20042;-72
2022/09/29 07:48:03;;;;;;;17.70;15.80;;;6.90;99.90;;;;;;4979519;28;20489;-71
2022/09/29 07:50:30;;;;;;;20.85;18.23;;;6.90;99.90;;;;;;4994000;28;20046;-73
2022/09/29 07:52:55;;;;;;;17.75;15.85;;;7.00;99.90;;;;;;4976663;28;20086;-72
2022/09/29 07:55:22;;;;;;;18.88;15.95;;;7.00;99.90;;;;;;4976731;28;20172;-72
2022/09/29 07:57:48;;;;;;;20.58;16.33;;;7.10;99.90;;;;;;4977220;28;20054;-72
2022/09/29 08:00:16;;;;;;;21.90;16.23;;;7.20;99.90;;;;;;4976935;28;20057;-74
2022/09/29 08:02:42;;;;;;;18.70;16.55;;;7.20;99.90;;;;;;4975961;28;20117;-71
2022/09/29 08:05:08;;;;;;;19.60;17.50;;;7.30;99.90;;;;;;4976516;28;20050;-72
2022/09/29 08:07:33;;;;;;;20.80;17.95;;;7.40;99.90;;;;;;4979784;28;20057;-73
2022/09/29 08:09:59;;;;;;;20.42;18.20;;;7.50;99.90;;;;;;4996400;28;20054;-74
2022/09/29 08:12:26;;;;;;;17.75;15.85;;;7.60;99.90;;;;;;4995974;28;20058;-72
2022/09/29 08:14:51;;;;;;;21.35;18.42;;;8.00;99.90;;;;;;4966487;28;20059;-71
2022/09/29 08:17:17;;;;;;;18.33;16.05;;;7.80;99.90;;;;;;4976557;28;20058;-73
2022/09/29 08:19:42;;;;;;;19.00;16.63;;;7.90;99.90;;;;;;4976485;28;20134;-72
2022/09/29 08:22:08;;;;;;;18.85;16.85;;;8.00;99.90;;;;;;4959365;28;20062;-72
2022/09/29 08:24:35;;;;;;;18.45;16.52;;;8.10;99.90;;;;;;4976223;28;20058;-70
2022/09/29 08:27:05;;;;;;;18.20;14.77;;;8.10;99.90;;;;;;4976069;28;20043;-72
2022/09/29 08:29:32;;;;;;;18.85;16.85;;;8.20;99.90;;;;;;4987339;28;20058;-72
2022/09/29 08:31:57;;;;;;;16.85;14.27;;;8.30;99.90;;;;;;4995655;28;20064;-71
2022/09/29 08:34:23;;;;;;;19.75;15.93;;;8.40;99.90;;;;;;4995715;28;20054;-72
2022/09/29 08:36:49;;;;;;;17.45;15.63;;;8.40;99.90;;;;;;4992931;28;20038;-72
2022/09/29 08:39:15;;;;;;;20.45;15.75;;;8.50;99.90;;;;;;4976205;28;20042;-71
2022/09/29 08:42:06;;;;;;;17.48;15.18;;;8.60;99.90;;;;;;4976085;28;20043;-72
2022/09/29 08:44:50;;;;;;;18.67;15.85;;;8.70;99.90;;;;;;4975499;28;20078;-71
2022/09/29 08:47:39;;;;;;;18.55;16.75;;;8.80;99.90;;;;;;4976346;28;20042;-73
2022/09/29 08:50:26;;;;;;;18.23;15.57;;;8.90;99.90;;;;;;4959287;28;20066;-72
2022/09/29 08:53:00;;;;;;;18.02;16.13;;;9.00;99.90;;;;;;4975772;28;20047;-72
2022/09/29 08:55:47;;;;;;;19.52;15.52;;;9.10;99.90;;;;;;4975916;28;20058;-71
2022/09/29 08:58:15;;;;;;;17.33;15.27;;;9.20;99.90;;;;;;4976210;28;20117;-71
2022/09/29 09:01:04;;;;;;;18.73;16.00;;;9.30;99.90;;;;;;4975497;28;20061;-71
2022/09/29 09:04:03;;;;;;;15.70;14.10;;;9.40;99.90;;;;;;4976114;28;20050;-71
2022/09/29 09:07:20;;;;;;;14.95;12.82;;;9.50;99.90;;;;;;5102279;23;20366;-70
2022/09/29 09:09:54;;;;;;;17.15;15.35;;;9.60;99.90;;;;;;4985497;28;20550;-71
2022/09/29 09:12:48;;;;;;;15.65;13.27;;;9.90;99.90;;;;;;5014160;28;20053;-73
2022/09/29 09:15:35;;;;;;;16.33;12.27;;;9.80;99.90;;;;;;5015204;28;20049;-72
2022/09/29 09:18:13;;;;;;;11.15;8.40;;;9.90;99.90;;;;;;5014763;28;20049;-71
2022/09/29 09:21:16;;;;;;;10.45;9.25;;;10.00;99.90;;;;;;4997252;28;20061;-71
2022/09/29 09:23:57;;;;;;;10.75;8.82;;;10.20;99.90;;;;;;4990626;28;20053;-71
2022/09/29 09:26:35;;;;;;;12.10;8.57;;;10.20;99.90;;;;;;4997363;28;20109;-73
2022/09/29 09:29:07;;;;;;;8.18;6.90;;;10.40;99.90;;;;;;4997574;28;20068;-73
2022/09/29 09:31:56;;;;;;;8.50;6.38;;;10.40;99.90;;;;;;4997788;28;20395;-72
2022/09/29 09:34:44;;;;;;;8.30;6.45;;;10.70;99.90;;;;;;5006528;28;20046;-72
2022/09/29 09:37:16;;;;;;;10.07;5.88;;;10.70;99.90;;;;;;5015131;28;20046;-72
2022/09/29 09:40:19;;;;;;;8.15;5.80;;;10.80;99.90;;;;;;5014545;28;20046;-73
2022/09/29 09:42:52;;;;;;;7.60;5.35;;;11.00;99.90;;;;;;5014738;28;20056;-72
2022/09/29 09:45:20;;;;;;;7.82;5.10;;;11.10;99.90;;;;;;5018210;28;20128;-71
2022/09/29 09:47:50;;;;;;;5.55;4.10;;;11.20;99.90;;;;;;5001822;28;20409;-74
2022/09/29 09:50:19;;;;;;;6.28;5.00;;;11.40;99.90;;;;;;5018615;28;20125;-73
2022/09/29 09:52:50;;;;;;;6.43;4.88;;;11.70;99.90;;;;;;4996800;28;20129;-71
2022/09/29 09:55:19;;;;;;;4.80;4.20;;;11.50;99.90;;;;;;5018060;28;20053;-72
2022/09/29 09:57:47;;;;;;;7.68;4.65;;;11.60;99.90;;;;;;5018502;28;20046;-71
2022/09/29 10:00:34;;;;;;;6.10;4.03;;;11.70;99.90;;;;;;5000816;28;20374;-72
2022/09/29 10:03:03;;;;;;;4.93;3.58;;;11.80;99.90;;;;;;5018239;28;20381;-72
2022/09/29 10:05:35;;;;;;;6.00;3.80;;;11.80;99.90;;;;;;5017976;28;20054;-71
2022/09/29 10:08:02;;;;;;;5.28;3.17;;;11.90;99.90;;;;;;5000188;28;20068;-72
2022/09/29 10:10:30;;;;;;;4.40;2.55;;;12.00;99.90;;;;;;4988403;28;20086;-72
2022/09/29 10:13:14;;;;;;;6.07;2.95;;;12.00;99.90;;;;;;4984310;28;20057;-72
2022/09/29 10:16:07;;;;;;;3.47;2.55;;;12.20;99.90;;;;;;5018074;28;20096;-74
2022/09/29 10:18:39;;;;;;;4.35;2.50;;;12.30;99.90;;;;;;5018025;28;20477;-72
2022/09/29 10:21:25;;;;;;;5.50;2.97;;;12.40;99.90;;;;;;5018115;28;20066;-72
2022/09/29 10:23:55;;;;;;;3.42;1.85;;;12.50;99.90;;;;;;5000216;28;20068;-72
2022/09/29 10:26:28;;;;;;;3.90;2.60;;;12.60;99.90;;;;;;5017749;28;20469;-73
2022/09/29 10:28:57;;;;;;;6.30;2.55;;;12.70;99.90;;;;;;5017460;28;20042;-71
2022/09/29 10:31:32;;;;;;;5.45;1.88;;;12.70;99.90;;;;;;5017321;28;20050;-72
2022/09/29 10:34:14;;;;;;;3.63;1.30;;;12.80;99.90;;;;;;5000233;28;20462;-70
2022/09/29 10:36:53;;;;;;;3.10;1.80;;;12.80;99.90;;;;;;5000134;28;20050;-73
2022/09/29 10:39:42;;;;;;;3.55;1.80;;;12.90;99.90;;;;;;5016987;28;20141;-72
2022/09/29 10:42:30;;;;;;;3.00;1.50;;;12.90;99.90;;;;;;4999998;28;20050;-71
2022/09/29 10:45:01;;;;;;;4.30;1.42;;;13.00;99.90;;;;;;5017476;28;20124;-72
2022/09/29 10:47:27;;;;;;;2.60;1.70;;;12.90;99.90;;;;;;5017384;28;20156;-72
2022/09/29 10:50:52;;;;;;;3.22;1.70;;;13.00;99.90;;;;;;5017405;28;20041;-72
2022/09/29 10:53:27;;;;;;;3.72;1.83;;;13.00;99.90;;;;;;4908158;29;20052;-72
2022/09/29 10:55:55;;;;;;;4.00;1.92;;;13.10;99.90;;;;;;4898927;29;20060;-71
2022/09/29 10:58:29;;;;;;;3.22;1.80;;;13.20;99.90;;;;;;4953355;28;20062;-71
2022/09/29 11:01:15;;;;;;;5.53;1.90;;;13.30;99.90;;;;;;4978015;28;20050;-71
2022/09/29 11:04:00;;;;;;;5.05;1.90;;;13.30;99.90;;;;;;4960723;28;20050;-73
2022/09/29 11:06:30;;;;;;;3.95;2.30;;;13.40;99.90;;;;;;4977554;28;20129;-70
2022/09/29 11:09:03;;;;;;;6.22;2.00;;;13.50;99.90;;;;;;5013150;28;20045;-71
2022/09/29 11:11:40;;;;;;;;;;;13.60;99.90;;;;;;5016951;28;20447;-72
2022/09/29 11:14:24;;;;;;;5.07;1.70;;;13.60;99.90;;;;;;5016850;28;19979;-72
2022/09/29 11:16:54;;;;;;;;;;;13.80;99.90;;;;;;5016438;28;20100;-71
2022/09/29 11:19:20;;;;;;;2.90;1.52;;;13.90;99.90;;;;;;5016341;28;20334;-72
2022/09/29 11:22:05;;;;;;;2.65;1.50;;;14.10;99.90;;;;;;5014105;28;20057;-72
2022/09/29 11:25:02;;;;;;;3.90;1.40;;;14.30;99.90;;;;;;4997084;28;20435;-72
2022/09/29 11:27:44;;;;;;;2.88;1.75;;;14.40;99.90;;;;;;4966119;28;20061;-71
2022/09/29 11:30:16;;;;;;;4.07;1.67;;;14.50;99.90;;;;;;5016113;28;20319;-73
2022/09/29 11:33:04;;;;;;;3.30;1.50;;;14.60;99.90;;;;;;4999015;28;20474;-73
2022/09/29 11:35:51;;;;;;;2.30;1.10;;;14.60;99.90;;;;;;4999105;28;20107;-72
2022/09/29 11:38:41;;;;;;;1.67;0.98;;;14.60;99.90;;;;;;5016654;28;20038;-72
2022/09/29 11:41:54;;;;;;;2.63;0.93;;;14.50;99.90;;;;;;4999449;28;20050;-71
2022/09/29 11:44:43;;;;;;;2.63;1.33;;;14.40;99.90;;;;;;4949194;29;20413;-72
2022/09/29 11:47:41;;;;;;;2.30;1.30;;;14.40;99.90;;;;;;4956081;29;20086;-71
2022/09/29 11:50:31;;;;;;;2.08;0.98;;;14.40;99.90;;;;;;4989269;28;20201;-72
2022/09/29 11:53:15;;;;;;;2.20;1.10;;;14.50;99.90;;;;;;5015933;28;20061;-71
2022/09/29 11:56:11;;;;;;;1.92;1.00;;;14.50;99.90;;;;;;4999125;28;20367;-71
2022/09/29 11:58:37;;;;;;;1.52;0.90;;;14.70;99.90;;;;;;4991582;28;20057;-70
2022/09/29 12:01:21;;;;;;;1.50;0.80;;;14.90;99.90;;;;;;4999087;28;20050;-75
2022/09/29 12:03:50;;;;;;;1.60;0.80;;;15.00;99.90;;;;;;5015966;28;20108;-71
2022/09/29 12:06:33;;;;;;;4.35;1.00;;;15.10;99.90;;;;;;5015914;28;20354;-72
2022/09/29 12:09:20;;;;;;;3.08;1.20;;;15.20;99.90;;;;;;4997946;28;20054;-73
2022/09/29 12:12:07;;;;;;;3.55;1.10;;;15.30;99.90;;;;;;5015608;28;20052;-72
2022/09/29 12:14:56;;;;;;;2.28;0.90;;;15.40;99.90;;;;;;5015836;28;20060;-72
2022/09/29 12:17:26;;;;;;;3.53;1.40;;;15.40;99.90;;;;;;5015172;28;20053;-71
2022/09/29 12:20:04;;;;;;;2.63;1.02;;;15.50;99.90;;;;;;4985506;28;20050;-74
2022/09/29 12:22:31;;;;;;;3.22;1.23;;;15.60;99.90;;;;;;5015664;28;20046;-71
2022/09/29 12:24:59;;;;;;;1.48;0.90;;;15.60;99.90;;;;;;5015691;28;20042;-72
2022/09/29 12:27:33;;;;;;;4.10;1.08;;;15.70;99.90;;;;;;5015555;28;20434;-71
2022/09/29 12:30:02;;;;;;;1.27;0.90;;;15.70;99.90;;;;;;5015179;28;20382;-71
2022/09/29 12:32:38;;;;;;;2.47;1.00;;;15.80;99.90;;;;;;5015545;28;20046;-70
2022/09/29 12:35:17;;;;;;;2.40;0.93;;;16.00;99.90;;;;;;5014891;28;20049;-71
2022/09/29 12:38:01;;;;;;;1.27;0.80;;;16.20;99.90;;;;;;5015477;28;20478;-74
2022/09/29 12:40:37;;;;;;;12.32;7.53;;;16.40;99.90;;;;;;4981704;28;20042;-71
2022/09/29 12:43:26;;;;;;;1.77;1.05;;;16.40;99.90;;;;;;4998000;28;20449;-72
2022/09/29 12:45:59;;;;;;;3.25;1.02;;;16.40;99.90;;;;;;5015514;28;20053;-72
2022/09/29 12:48:25;;;;;;;2.47;0.88;;;16.30;99.90;;;;;;5014506;28;20057;-73
2022/09/29 12:50:58;;;;;;;4.68;1.02;;;16.20;99.90;;;;;;5015312;28;20054;-71
2022/09/29 12:53:37;;;;;;;1.35;0.80;;;16.10;99.90;;;;;;5014931;28;20046;-72
2022/09/29 12:56:23;;;;;;;1.27;0.80;;;16.00;99.90;;;;;;5015203;28;20092;-73
2022/09/29 12:59:02;;;;;;;1.17;0.80;;;15.90;99.90;;;;;;5015171;28;20132;-72
2022/09/29 13:01:32;;;;;;;1.70;1.10;;;15.80;99.90;;;;;;5014890;28;20061;-72
2022/09/29 13:04:36;;;;;;;3.97;1.23;;;15.70;99.90;;;;;;5014495;28;20459;-72
2022/09/29 13:07:13;;;;;;;2.78;1.10;;;15.60;99.90;;;;;;5015299;28;20062;-72
2022/09/29 13:09:57;;;;;;;1.23;0.82;;;15.60;99.90;;;;;;5014764;28;20058;-73
2022/09/29 13:12:54;;;;;;;2.17;0.88;;;15.70;99.90;;;;;;5015334;28;20049;-74
2022/09/29 13:15:48;;;;;;;1.40;0.88;;;15.80;99.90;;;;;;4981781;28;20054;-72